Payerne Airport LSMP

Flugplatz Daten

Name: Payerne Airport

Ident: LSMP

Lat: 46,84320068

Long: 6,915060043

Platzhöhe: 1465 ft

IataCode:

City:

Metar

2021/10/25 19:50
LSMP 251950Z AUTO 22003KT 9999NDV SCT045 07/06 Q1022 RMK

Taf

2021/10/25 17:00
TAF LSMP 251625Z 2517/2623 VRB02KT CAVOK
BECMG 2520/2522 4500 BR NSC
BECMG 2603/2605 9999 SCT045 PROB40 2605/2607 RA
Gewünschte Webcam nicht vorhanden? Dann fügen Sie eine hinzu. Sie wird dann so schnell wie möglich freigeschaltet
Url: Title: